Time;durP1;ratioP1;P1;durP2;ratioP2;P2;SDS_P1;SDS_P2;PMS_P1;PMS_P2;Temp;Humidity;BMP_temperature;BMP_pressure;BME280_temperature;BME280_humidity;BME280_pressure;Samples;Min_cycle;Max_cycle;Signal;HPM_P1;HPM_P2
2022/12/20 00:01:56;;;;;;;3.40;2.40;;;9.90;99.90;;;;;;4972214;28;20069;-82
2022/12/20 00:04:21;;;;;;;3.58;2.35;;;10.00;99.90;;;;;;4972925;28;20030;-83
2022/12/20 00:06:47;;;;;;;3.70;1.70;;;10.10;99.90;;;;;;4972290;28;20490;-82
2022/12/20 00:09:12;;;;;;;5.60;2.40;;;10.00;99.90;;;;;;4956103;28;20034;-82
2022/12/20 00:11:39;;;;;;;2.45;2.00;;;10.00;99.90;;;;;;4964641;28;20054;-82
2022/12/20 00:14:04;;;;;;;3.83;2.15;;;10.00;99.90;;;;;;4972064;28;20061;-82
2022/12/20 00:16:30;;;;;;;2.63;1.77;;;10.00;99.90;;;;;;4988371;28;20125;-82
2022/12/20 00:18:57;;;;;;;5.35;2.03;;;10.00;99.90;;;;;;4970715;28;20049;-82
2022/12/20 00:21:23;;;;;;;4.25;2.28;;;10.00;99.90;;;;;;4956203;28;20030;-82
2022/12/20 00:23:48;;;;;;;3.70;1.90;;;10.00;99.90;;;;;;4954898;28;20030;-81
2022/12/20 00:26:16;;;;;;;2.03;1.38;;;10.10;99.90;;;;;;4953952;28;20038;-82
2022/12/20 00:28:43;;;;;;;3.60;2.10;;;10.10;99.90;;;;;;4969599;28;20513;-82
2022/12/20 00:31:09;;;;;;;5.30;2.10;;;10.10;99.90;;;;;;4988343;28;20034;-82
2022/12/20 00:33:35;;;;;;;1.50;1.40;;;10.10;99.90;;;;;;4970969;28;20042;-82
2022/12/20 00:36:01;;;;;;;3.20;1.77;;;10.10;99.90;;;;;;4971087;28;20096;-82
2022/12/20 00:38:26;;;;;;;2.20;1.15;;;10.10;99.90;;;;;;4971099;28;20031;-82
2022/12/20 00:41:04;;;;;;;2.35;1.65;;;10.10;99.90;;;;;;4971219;28;20042;-82
2022/12/20 00:43:30;;;;;;;2.85;1.95;;;10.10;99.90;;;;;;4986462;28;20037;-82
2022/12/20 00:45:55;;;;;;;5.20;2.10;;;10.10;99.90;;;;;;4986031;28;20039;-82
2022/12/20 00:48:21;;;;;;;4.18;1.85;;;10.20;99.90;;;;;;4967791;28;20034;-82
2022/12/20 00:50:47;;;;;;;5.13;2.10;;;10.10;99.90;;;;;;4968838;28;20449;-82
2022/12/20 00:53:12;;;;;;;1.55;1.42;;;10.10;99.90;;;;;;4965676;28;20463;-82
2022/12/20 00:55:45;;;;;;;5.10;1.77;;;10.20;99.90;;;;;;4970894;28;20113;-82
2022/12/20 00:58:11;;;;;;;4.40;1.50;;;10.10;99.90;;;;;;4966606;28;20529;-83
2022/12/20 01:00:37;;;;;;;4.18;1.75;;;10.10;99.90;;;;;;4967628;28;20035;-82
2022/12/20 01:03:02;;;;;;;3.10;1.95;;;10.10;99.90;;;;;;4967435;28;20043;-82
2022/12/20 01:05:28;;;;;;;3.33;1.85;;;10.10;99.90;;;;;;4968372;28;20556;-82
2022/12/20 01:07:53;;;;;;;2.53;1.65;;;10.20;99.90;;;;;;4969450;28;20046;-82
2022/12/20 01:10:19;;;;;;;3.80;2.03;;;10.20;99.90;;;;;;4985313;28;20035;-82
2022/12/20 01:12:44;;;;;;;3.72;1.38;;;10.20;99.90;;;;;;4952510;28;20030;-82
2022/12/20 01:15:10;;;;;;;2.55;1.30;;;10.20;99.90;;;;;;4970783;28;20482;-82
2022/12/20 01:17:36;;;;;;;2.65;1.30;;;10.20;99.90;;;;;;4985081;28;20126;-82
2022/12/20 01:20:02;;;;;;;3.30;1.50;;;10.20;99.90;;;;;;4987376;28;20066;-82
2022/12/20 01:22:27;;;;;;;3.47;1.73;;;10.20;99.90;;;;;;4970862;28;20041;-82
2022/12/20 01:24:53;;;;;;;5.88;1.58;;;10.30;99.90;;;;;;4982399;28;20038;-83
2022/12/20 01:27:18;;;;;;;4.25;1.90;;;10.30;99.90;;;;;;4951447;28;20571;-82
2022/12/20 01:29:44;;;;;;;4.80;1.88;;;10.40;99.90;;;;;;4969875;28;20379;-82
2022/12/20 01:32:09;;;;;;;1.60;1.27;;;10.40;99.90;;;;;;4967510;28;20580;-82
2022/12/20 01:34:35;;;;;;;1.95;1.52;;;10.40;99.90;;;;;;4952464;28;20026;-82
2022/12/20 01:37:00;;;;;;;4.97;1.90;;;10.30;99.90;;;;;;4948576;28;20050;-82
2022/12/20 01:39:26;;;;;;;2.78;2.00;;;10.30;99.90;;;;;;4967884;28;20030;-82
2022/12/20 01:41:51;;;;;;;3.83;1.70;;;10.40;99.90;;;;;;4956278;28;20038;-82
2022/12/20 01:44:17;;;;;;;2.63;1.77;;;10.30;99.90;;;;;;4985787;28;20114;-82
2022/12/20 01:46:43;;;;;;;2.95;1.63;;;10.40;99.90;;;;;;4986834;28;20019;-82
2022/12/20 01:49:25;;;;;;;2.50;1.90;;;10.30;99.90;;;;;;4985905;28;20046;-82
2022/12/20 01:52:10;;;;;;;1.63;1.45;;;10.40;99.90;;;;;;4984010;28;20030;-82
2022/12/20 01:54:59;;;;;;;2.88;1.88;;;10.40;99.90;;;;;;4966624;28;20031;-82
2022/12/20 01:58:13;;;;;;;4.60;2.00;;;10.30;99.90;;;;;;4969061;28;20110;-82
2022/12/20 02:00:39;;;;;;;2.83;1.52;;;10.30;99.90;;;;;;4966284;28;20088;-82
2022/12/20 02:03:06;;;;;;;6.25;2.17;;;10.30;99.90;;;;;;4985002;28;20109;-82
2022/12/20 02:05:39;;;;;;;5.25;2.72;;;10.30;99.90;;;;;;4960740;28;20035;-82
2022/12/20 02:08:05;;;;;;;2.80;1.42;;;10.30;99.90;;;;;;4966168;28;20035;-82
2022/12/20 02:10:38;;;;;;;6.78;2.28;;;10.30;99.90;;;;;;4965297;28;20035;-82
2022/12/20 02:13:08;;;;;;;2.88;1.83;;;10.30;99.90;;;;;;4981234;28;20081;-82
2022/12/20 02:15:55;;;;;;;3.53;1.40;;;10.20;99.90;;;;;;4952354;28;20030;-81
2022/12/20 02:18:31;;;;;;;5.57;1.50;;;10.20;99.90;;;;;;4986080;28;20498;-82
2022/12/20 02:21:09;;;;;;;3.38;2.30;;;10.20;99.90;;;;;;4981782;28;21926;-82
2022/12/20 02:23:58;;;;;;;1.80;1.50;;;10.20;99.90;;;;;;4986027;28;20026;-82
2022/12/20 02:26:47;;;;;;;3.10;2.10;;;10.20;99.90;;;;;;4953301;28;20031;-82
2022/12/20 02:29:34;;;;;;;3.92;1.90;;;10.20;99.90;;;;;;4969439;28;20053;-82
2022/12/20 02:32:01;;;;;;;5.22;2.80;;;10.20;99.90;;;;;;4950986;28;20035;-82
2022/12/20 02:34:27;;;;;;;3.08;2.28;;;10.10;99.90;;;;;;4984415;28;20055;-82
2022/12/20 02:36:52;;;;;;;3.53;2.33;;;10.10;99.90;;;;;;4964337;28;20544;-82
2022/12/20 02:39:19;;;;;;;2.60;2.20;;;10.10;99.90;;;;;;4953008;28;20042;-83
2022/12/20 02:42:06;;;;;;;5.32;2.35;;;10.10;99.90;;;;;;4967134;28;20034;-82
2022/12/20 02:47:20;;;;;;;3.70;2.13;;;10.00;99.90;;;;;;4984448;28;20104;-82
2022/12/20 02:49:46;;;;;;;3.15;1.90;;;10.00;99.90;;;;;;4958512;28;20030;-82
2022/12/20 02:52:11;;;;;;;2.72;1.88;;;10.00;99.90;;;;;;4966732;28;20041;-82
2022/12/20 02:54:37;;;;;;;4.15;2.08;;;10.00;99.90;;;;;;4954405;28;20026;-82
2022/12/20 02:57:10;;;;;;;5.25;2.00;;;10.00;99.90;;;;;;4984784;28;20525;-82
2022/12/20 02:59:38;;;;;;;3.92;2.45;;;10.00;99.90;;;;;;4968439;28;20031;-82
2022/12/20 03:02:04;;;;;;;5.07;2.47;;;10.00;99.90;;;;;;4946848;28;20031;-82
2022/12/20 03:04:30;;;;;;;4.82;2.35;;;10.00;99.90;;;;;;4955750;28;20030;-82
2022/12/20 03:06:57;;;;;;;5.00;2.42;;;10.00;99.90;;;;;;4984591;28;20050;-82
2022/12/20 03:09:23;;;;;;;5.97;2.45;;;10.00;99.90;;;;;;4961594;28;20097;-82
2022/12/20 03:11:48;;;;;;;4.57;2.28;;;10.00;99.90;;;;;;4950776;28;20132;-82
2022/12/20 03:14:14;;;;;;;7.05;2.33;;;10.00;99.90;;;;;;4967123;28;20034;-82
2022/12/20 03:16:39;;;;;;;7.63;2.78;;;10.00;99.90;;;;;;4984411;28;20034;-82
2022/12/20 03:19:05;;;;;;;4.47;2.10;;;10.00;99.90;;;;;;4984361;28;20034;-82
2022/12/20 03:21:30;;;;;;;5.55;2.95;;;10.00;99.90;;;;;;4967115;28;20034;-82
2022/12/20 03:23:56;;;;;;;5.70;2.92;;;9.90;99.90;;;;;;4969005;28;20038;-82
2022/12/20 03:26:21;;;;;;;3.30;2.15;;;9.90;99.90;;;;;;4967896;28;20039;-83
2022/12/20 03:28:47;;;;;;;4.97;2.63;;;9.90;99.90;;;;;;4952536;28;20042;-83
2022/12/20 03:31:12;;;;;;;5.07;2.80;;;9.90;99.90;;;;;;4958241;28;20106;-83
2022/12/20 03:33:38;;;;;;;4.40;3.35;;;9.80;99.90;;;;;;4969653;28;20517;-83
2022/12/20 03:36:04;;;;;;;4.70;2.50;;;9.80;99.90;;;;;;4964120;28;20729;-82
2022/12/20 03:38:29;;;;;;;4.63;2.50;;;9.80;99.90;;;;;;4969604;28;20564;-83
2022/12/20 03:40:55;;;;;;;7.30;2.67;;;9.80;99.90;;;;;;4969453;28;20034;-82
2022/12/20 03:43:20;;;;;;;4.72;3.22;;;9.80;99.90;;;;;;4968680;28;20141;-82
2022/12/20 03:45:46;;;;;;;5.50;2.90;;;9.80;99.90;;;;;;4968283;28;20033;-82
2022/12/20 03:48:11;;;;;;;5.65;3.17;;;9.70;99.90;;;;;;4952678;28;20038;-83
2022/12/20 03:50:37;;;;;;;3.90;2.45;;;9.70;99.90;;;;;;4969161;28;20027;-82
2022/12/20 03:53:02;;;;;;;4.90;2.60;;;9.70;99.90;;;;;;4969123;28;20035;-82
2022/12/20 03:55:28;;;;;;;5.75;2.78;;;9.70;99.90;;;;;;4967074;28;20032;-83
2022/12/20 03:57:54;;;;;;;7.15;3.03;;;9.60;99.90;;;;;;4968970;28;20080;-82
2022/12/20 04:00:19;;;;;;;4.45;3.17;;;9.60;99.90;;;;;;4949483;28;20033;-83
2022/12/20 04:02:45;;;;;;;6.55;3.10;;;9.60;99.90;;;;;;4949578;28;20546;-82
2022/12/20 04:05:11;;;;;;;5.25;2.83;;;9.60;99.90;;;;;;4963313;28;20037;-82
2022/12/20 04:07:36;;;;;;;7.93;4.45;;;9.60;99.90;;;;;;4964185;28;20043;-82
2022/12/20 04:10:02;;;;;;;3.72;2.53;;;9.60;99.90;;;;;;4969302;28;20177;-82
2022/12/20 04:12:27;;;;;;;4.93;3.10;;;9.60;99.90;;;;;;4953213;28;20026;-83
2022/12/20 04:14:53;;;;;;;9.38;3.20;;;9.60;99.90;;;;;;4970609;28;20053;-83
2022/12/20 04:17:18;;;;;;;4.20;2.67;;;9.50;99.90;;;;;;4971475;28;20031;-83
2022/12/20 04:19:44;;;;;;;4.80;2.60;;;9.50;99.90;;;;;;4971697;28;20054;-82
2022/12/20 04:22:09;;;;;;;3.38;2.80;;;9.50;99.90;;;;;;4972025;28;20046;-83
2022/12/20 04:24:35;;;;;;;4.03;2.47;;;9.50;99.90;;;;;;4972372;28;20394;-82
2022/12/20 04:27:04;;;;;;;3.92;3.38;;;9.40;99.90;;;;;;4955314;28;20050;-82
2022/12/20 04:29:30;;;;;;;6.22;3.85;;;9.40;99.90;;;;;;4962616;28;20022;-82
2022/12/20 04:31:55;;;;;;;4.10;2.75;;;9.40;99.90;;;;;;4943432;28;20030;-82
2022/12/20 04:34:21;;;;;;;4.80;2.40;;;9.40;99.90;;;;;;4969256;28;20445;-83
2022/12/20 04:36:46;;;;;;;7.43;3.65;;;9.40;99.90;;;;;;4970435;28;20074;-83
2022/12/20 04:39:12;;;;;;;5.72;2.33;;;9.50;99.90;;;;;;4988127;28;20058;-83
2022/12/20 04:41:37;;;;;;;6.13;3.20;;;9.40;99.90;;;;;;4960721;28;20042;-83
2022/12/20 04:44:03;;;;;;;5.72;2.42;;;9.40;99.90;;;;;;4986619;28;20031;-83
2022/12/20 04:46:29;;;;;;;5.82;2.53;;;9.40;99.90;;;;;;4960366;28;20038;-82
2022/12/20 04:48:54;;;;;;;6.50;3.15;;;9.40;99.90;;;;;;4979107;28;20038;-83
2022/12/20 04:51:20;;;;;;;6.47;3.42;;;9.40;99.90;;;;;;4972283;28;20098;-83
2022/12/20 04:53:46;;;;;;;4.50;3.20;;;9.50;99.90;;;;;;4953843;28;20035;-83
2022/12/20 04:56:19;;;;;;;3.42;2.38;;;9.40;99.90;;;;;;4988275;28;20110;-83
2022/12/20 04:58:44;;;;;;;5.72;2.75;;;9.40;99.90;;;;;;4960033;28;20478;-82
2022/12/20 05:01:10;;;;;;;3.85;2.95;;;9.40;99.90;;;;;;4972230;28;20033;-83
2022/12/20 05:03:36;;;;;;;5.95;3.55;;;9.40;99.90;;;;;;4955616;28;20435;-83
2022/12/20 05:06:01;;;;;;;5.30;3.35;;;9.40;99.90;;;;;;4970687;28;20041;-82
2022/12/20 05:08:27;;;;;;;4.68;3.47;;;9.40;99.90;;;;;;4971857;28;20042;-83
2022/12/20 05:10:52;;;;;;;3.55;3.08;;;9.40;99.90;;;;;;4972223;28;20129;-83
2022/12/20 05:13:18;;;;;;;5.05;2.22;;;9.40;99.90;;;;;;4947099;28;20034;-82
2022/12/20 05:15:44;;;;;;;5.25;3.40;;;9.40;99.90;;;;;;4951738;28;20416;-82
2022/12/20 05:18:09;;;;;;;6.38;3.28;;;9.40;99.90;;;;;;4969807;28;20086;-82
2022/12/20 05:20:35;;;;;;;5.53;3.40;;;9.40;99.90;;;;;;4970880;28;20026;-82
2022/12/20 05:26:33;;;;;;;4.18;3.50;;;9.40;99.90;;;;;;4971048;28;20053;-83
2022/12/20 05:28:35;;;;;;;5.20;3.63;;;9.40;99.90;;;;;;4973481;28;20030;-83
2022/12/20 05:31:00;;;;;;;5.45;3.67;;;9.40;99.90;;;;;;4969456;28;20046;-82
2022/12/20 05:33:26;;;;;;;7.03;3.78;;;9.30;99.90;;;;;;4988129;28;20363;-83
2022/12/20 05:35:52;;;;;;;4.72;3.25;;;9.40;99.90;;;;;;4986459;28;20047;-82
2022/12/20 05:38:17;;;;;;;6.90;3.35;;;9.40;99.90;;;;;;4969325;28;20078;-82
2022/12/20 05:40:43;;;;;;;5.32;3.17;;;9.40;99.90;;;;;;4969387;28;20034;-82
2022/12/20 05:43:08;;;;;;;6.32;2.92;;;9.40;99.90;;;;;;4965299;28;20121;-82
2022/12/20 05:45:34;;;;;;;4.63;2.65;;;9.30;99.90;;;;;;4968123;28;20038;-82
2022/12/20 05:48:02;;;;;;;5.70;2.95;;;9.30;99.90;;;;;;4984143;28;20034;-82
2022/12/20 05:50:27;;;;;;;3.42;2.50;;;9.30;99.90;;;;;;4969051;28;20034;-82
2022/12/20 05:52:53;;;;;;;6.55;3.38;;;9.30;99.90;;;;;;4967647;28;20406;-83
2022/12/20 05:55:18;;;;;;;6.78;3.20;;;9.40;99.90;;;;;;4969935;28;20532;-82
2022/12/20 05:57:44;;;;;;;5.53;3.95;;;9.40;99.90;;;;;;4970089;28;20207;-82
2022/12/20 06:00:10;;;;;;;5.97;3.15;;;9.30;99.90;;;;;;4968615;28;20441;-82
2022/12/20 06:02:36;;;;;;;9.07;3.30;;;9.30;99.90;;;;;;4987265;28;20057;-82
2022/12/20 06:05:01;;;;;;;12.70;3.30;;;9.30;99.90;;;;;;4969486;28;20030;-82
2022/12/20 06:07:30;;;;;;;5.63;3.65;;;9.30;99.90;;;;;;4984372;28;20541;-83
2022/12/20 06:09:56;;;;;;;5.05;3.45;;;9.30;99.90;;;;;;4967629;28;20023;-82
2022/12/20 06:12:22;;;;;;;7.63;3.03;;;9.30;99.90;;;;;;4947477;28;20034;-83
2022/12/20 06:14:47;;;;;;;4.07;3.17;;;9.30;99.90;;;;;;4950931;28;20039;-83
2022/12/20 06:17:13;;;;;;;5.60;3.70;;;9.40;99.90;;;;;;4985625;28;20045;-82
2022/12/20 06:19:40;;;;;;;9.35;2.78;;;9.30;99.90;;;;;;4986889;28;20031;-83
2022/12/20 06:22:07;;;;;;;4.80;3.05;;;9.40;99.90;;;;;;4970609;28;20042;-82
2022/12/20 06:24:33;;;;;;;6.43;3.13;;;9.40;99.90;;;;;;4968558;28;20042;-83
2022/12/20 06:26:59;;;;;;;5.63;3.63;;;9.40;99.90;;;;;;4960997;28;20407;-83
2022/12/20 06:29:24;;;;;;;6.95;4.68;;;9.40;99.90;;;;;;4950610;28;20038;-83
2022/12/20 06:31:50;;;;;;;3.95;3.08;;;9.40;99.90;;;;;;4952448;28;20094;-83
2022/12/20 06:34:16;;;;;;;4.63;2.90;;;9.40;99.90;;;;;;4955577;28;20057;-83
2022/12/20 06:36:41;;;;;;;5.15;3.42;;;9.40;99.90;;;;;;4953099;28;20077;-83
2022/12/20 06:39:08;;;;;;;8.43;2.83;;;9.40;99.90;;;;;;4969724;28;20037;-83
2022/12/20 06:41:34;;;;;;;4.80;3.13;;;9.40;99.90;;;;;;4969416;28;20524;-83
2022/12/20 06:44:00;;;;;;;7.57;3.60;;;9.50;99.90;;;;;;4952069;28;20042;-83
2022/12/20 06:46:26;;;;;;;4.45;3.00;;;9.50;99.90;;;;;;4969609;28;20035;-83
2022/12/20 06:48:52;;;;;;;5.70;3.08;;;9.50;99.90;;;;;;4967993;28;20517;-83
2022/12/20 06:51:18;;;;;;;6.43;3.08;;;9.50;99.90;;;;;;4969179;28;20034;-82
2022/12/20 06:53:43;;;;;;;3.42;2.13;;;9.50;99.90;;;;;;4986847;28;20030;-83
2022/12/20 06:56:09;;;;;;;4.70;2.85;;;9.50;99.90;;;;;;4968589;28;20650;-83
2022/12/20 06:58:34;;;;;;;4.38;2.65;;;9.50;99.90;;;;;;4954239;28;20899;-83
2022/12/20 07:01:00;;;;;;;4.95;2.40;;;9.50;99.90;;;;;;4947030;28;20470;-83
2022/12/20 07:03:25;;;;;;;6.05;2.90;;;9.50;99.90;;;;;;4983510;28;20035;-82
2022/12/20 07:05:54;;;;;;;4.43;2.40;;;9.60;99.90;;;;;;4961991;28;20129;-82
2022/12/20 07:08:20;;;;;;;3.90;2.78;;;9.60;99.90;;;;;;4967312;28;20039;-82
2022/12/20 07:10:46;;;;;;;8.10;2.83;;;9.60;99.90;;;;;;4967493;28;20126;-83
2022/12/20 07:13:13;;;;;;;3.92;1.95;;;9.60;99.90;;;;;;4949291;28;20402;-82
2022/12/20 07:15:38;;;;;;;4.90;2.38;;;9.60;99.90;;;;;;4968415;28;20035;-82
2022/12/20 07:18:05;;;;;;;3.60;2.88;;;9.60;99.90;;;;;;4959947;28;20038;-83
2022/12/20 07:20:31;;;;;;;3.97;2.72;;;9.60;99.90;;;;;;4968848;28;20052;-83
2022/12/20 07:22:56;;;;;;;3.97;2.65;;;9.60;99.90;;;;;;4953248;28;20479;-82
2022/12/20 07:25:23;;;;;;;6.22;2.58;;;9.60;99.90;;;;;;4947815;28;20486;-83
2022/12/20 07:27:49;;;;;;;5.97;2.20;;;9.70;99.90;;;;;;4966259;28;20425;-83
2022/12/20 07:30:15;;;;;;;3.97;1.77;;;9.70;99.90;;;;;;4984475;28;20049;-82
2022/12/20 07:32:42;;;;;;;5.70;4.20;;;9.60;99.90;;;;;;4952849;28;20573;-83
2022/12/20 07:35:09;;;;;;;6.32;2.90;;;9.70;99.90;;;;;;4967623;28;20100;-83
2022/12/20 07:37:35;;;;;;;3.05;2.20;;;9.60;99.90;;;;;;4954184;28;20026;-83
2022/12/20 07:40:00;;;;;;;2.53;2.03;;;9.60;99.90;;;;;;4967163;28;20097;-83
2022/12/20 07:42:26;;;;;;;3.33;2.65;;;9.60;99.90;;;;;;4970297;28;20031;-83
2022/12/20 07:44:51;;;;;;;2.97;2.10;;;9.70;99.90;;;;;;4944923;28;20085;-82
2022/12/20 07:47:17;;;;;;;3.83;2.78;;;9.70;99.90;;;;;;4951125;28;20582;-82
2022/12/20 07:49:44;;;;;;;2.60;1.98;;;9.70;99.90;;;;;;4972360;28;20037;-82
2022/12/20 07:52:10;;;;;;;4.88;2.95;;;9.70;99.90;;;;;;4951637;28;20047;-82
2022/12/20 07:54:44;;;;;;;9.27;2.47;;;9.70;99.90;;;;;;4955019;28;20058;-82
2022/12/20 07:57:37;;;;;;;5.28;2.40;;;9.70;99.90;;;;;;4970974;28;20030;-81
2022/12/20 08:00:04;;;;;;;2.75;2.08;;;9.80;99.90;;;;;;4946681;28;20092;-81
2022/12/20 08:02:38;;;;;;;3.40;2.55;;;9.70;99.90;;;;;;4975997;28;20507;-82
2022/12/20 08:05:04;;;;;;;3.40;2.45;;;9.80;99.90;;;;;;4985719;28;20093;-81
2022/12/20 08:07:30;;;;;;;5.30;2.97;;;9.80;99.90;;;;;;4976901;28;20125;-83
2022/12/20 08:09:56;;;;;;;4.95;2.35;;;9.70;99.90;;;;;;4951854;28;20117;-81
2022/12/20 08:12:21;;;;;;;3.15;2.63;;;9.70;99.90;;;;;;4956056;28;20027;-84
2022/12/20 08:14:47;;;;;;;3.60;2.45;;;9.70;99.90;;;;;;4970972;28;20041;-83
2022/12/20 08:17:12;;;;;;;3.25;2.63;;;9.70;99.90;;;;;;4970260;28;20540;-82
2022/12/20 08:19:38;;;;;;;4.05;2.80;;;9.70;99.90;;;;;;4956455;28;20541;-82
2022/12/20 08:22:05;;;;;;;4.30;2.00;;;9.70;99.90;;;;;;4967753;28;20040;-82
2022/12/20 08:24:31;;;;;;;2.63;1.88;;;9.70;99.90;;;;;;4955695;28;20034;-82
2022/12/20 08:26:57;;;;;;;4.20;2.42;;;9.70;99.90;;;;;;4986626;28;20397;-82
2022/12/20 08:29:22;;;;;;;4.22;2.65;;;9.60;99.90;;;;;;4962025;28;20142;-82
2022/12/20 08:31:49;;;;;;;3.58;2.55;;;9.80;99.90;;;;;;4956802;28;20556;-82
2022/12/20 08:34:16;;;;;;;5.13;2.30;;;9.80;99.90;;;;;;4966821;28;20030;-82
2022/12/20 08:36:42;;;;;;;3.80;2.15;;;9.80;99.90;;;;;;4971136;28;20034;-82
2022/12/20 08:39:10;;;;;;;3.75;2.20;;;9.90;99.90;;;;;;4968847;28;20038;-83
2022/12/20 08:41:36;;;;;;;3.38;2.38;;;9.90;99.90;;;;;;4989247;28;20089;-82
2022/12/20 08:44:06;;;;;;;2.20;2.00;;;10.00;99.90;;;;;;4963834;28;20034;-82
2022/12/20 08:46:32;;;;;;;8.48;2.40;;;10.00;99.90;;;;;;4959489;28;20469;-82
2022/12/20 08:48:58;;;;;;;6.80;3.20;;;10.00;99.90;;;;;;4969460;28;20758;-82
2022/12/20 08:51:24;;;;;;;4.35;2.85;;;10.00;99.90;;;;;;4975680;28;20080;-82
2022/12/20 08:53:50;;;;;;;2.40;1.80;;;10.00;99.90;;;;;;4949138;28;20118;-82
2022/12/20 08:56:16;;;;;;;5.03;2.33;;;10.10;99.90;;;;;;4970751;28;20122;-82
2022/12/20 08:58:42;;;;;;;6.15;2.45;;;10.10;99.90;;;;;;4954860;28;20553;-82
2022/12/20 09:01:15;;;;;;;2.25;2.00;;;10.10;99.90;;;;;;4986530;28;20051;-82
2022/12/20 09:03:41;;;;;;;4.72;2.42;;;10.20;99.90;;;;;;4953679;28;20034;-82
2022/12/20 09:06:11;;;;;;;3.60;1.98;;;10.20;99.90;;;;;;4967229;28;20052;-82
2022/12/20 09:08:37;;;;;;;7.40;2.45;;;10.20;99.90;;;;;;4970956;28;20042;-82
2022/12/20 09:11:05;;;;;;;3.15;1.67;;;10.20;99.90;;;;;;4970591;28;20393;-82
2022/12/20 09:13:30;;;;;;;2.20;1.63;;;10.30;99.90;;;;;;4953968;28;20034;-81
2022/12/20 09:16:04;;;;;;;4.65;1.83;;;10.30;99.90;;;;;;4971143;28;20088;-82
2022/12/20 09:18:30;;;;;;;2.90;2.10;;;10.30;99.90;;;;;;4946297;28;20080;-82
2022/12/20 09:20:59;;;;;;;6.43;2.97;;;10.30;99.90;;;;;;4970883;28;20034;-82
2022/12/20 09:23:25;;;;;;;4.95;2.15;;;10.40;99.90;;;;;;4987921;28;20056;-81
2022/12/20 09:25:53;;;;;;;2.47;2.15;;;10.40;99.90;;;;;;4952774;28;20529;-82
2022/12/20 09:28:19;;;;;;;4.30;2.10;;;10.40;99.90;;;;;;4955565;28;20506;-82
2022/12/20 09:30:44;;;;;;;6.68;2.22;;;10.40;99.90;;;;;;4953763;28;20026;-82
2022/12/20 09:33:10;;;;;;;8.05;2.17;;;10.50;99.90;;;;;;4951355;28;20047;-82
2022/12/20 09:35:36;;;;;;;3.65;2.42;;;10.50;99.90;;;;;;4970071;28;20473;-82
2022/12/20 09:38:01;;;;;;;5.70;2.47;;;10.50;99.90;;;;;;4956808;28;20386;-82
2022/12/20 09:40:29;;;;;;;9.27;2.22;;;10.50;99.90;;;;;;4970409;28;20389;-81
2022/12/20 09:42:55;;;;;;;2.95;2.50;;;10.50;99.90;;;;;;4969061;28;20498;-82
2022/12/20 09:45:28;;;;;;;6.28;2.63;;;10.50;99.90;;;;;;4970873;28;20077;-82
2022/12/20 09:47:54;;;;;;;3.10;2.55;;;10.50;99.90;;;;;;4952606;28;20050;-81
2022/12/20 09:50:20;;;;;;;5.30;2.58;;;10.50;99.90;;;;;;4970734;28;20717;-82
2022/12/20 09:53:19;;;;;;;5.72;2.47;;;10.50;99.90;;;;;;4968317;28;20538;-81
2022/12/20 09:55:52;;;;;;;3.90;2.20;;;10.50;99.90;;;;;;4968925;28;20403;-81
2022/12/20 09:58:41;;;;;;;4.72;2.40;;;10.50;99.90;;;;;;4953569;28;20497;-81
2022/12/20 10:01:26;;;;;;;3.72;1.30;;;10.60;99.90;;;;;;4984364;28;20027;-81
2022/12/20 10:03:58;;;;;;;3.80;2.15;;;10.60;99.90;;;;;;4952714;28;20490;-81
2022/12/20 10:06:48;;;;;;;4.68;1.80;;;10.60;99.90;;;;;;4969804;28;20486;-80
2022/12/20 10:09:34;;;;;;;2.22;1.52;;;10.60;99.90;;;;;;4969154;28;20038;-81
2022/12/20 10:12:26;;;;;;;8.68;3.28;;;10.60;99.90;;;;;;4968278;28;20038;-81
2022/12/20 10:15:19;;;;;;;5.22;2.20;;;10.60;99.90;;;;;;4985939;28;20037;-81
2022/12/20 10:18:21;;;;;;;4.03;2.75;;;10.60;99.90;;;;;;4952294;28;20112;-81
2022/12/20 10:21:09;;;;;;;3.65;1.90;;;10.60;99.90;;;;;;4938776;28;20033;-81
2022/12/20 10:23:43;;;;;;;4.93;2.80;;;10.60;99.90;;;;;;4985580;28;20038;-81
2022/12/20 10:26:11;;;;;;;4.35;2.58;;;10.60;99.90;;;;;;4985559;28;20026;-81
2022/12/20 10:28:36;;;;;;;2.90;2.10;;;10.60;99.90;;;;;;4949229;28;20031;-81
2022/12/20 10:31:09;;;;;;;4.55;2.13;;;10.60;99.90;;;;;;4957579;28;20035;-81
2022/12/20 10:33:35;;;;;;;3.50;1.60;;;10.70;99.90;;;;;;4955834;28;20486;-81
2022/12/20 10:36:19;;;;;;;3.85;2.35;;;10.70;99.90;;;;;;4951743;28;21323;-81
2022/12/20 10:38:47;;;;;;;3.47;2.22;;;10.70;99.90;;;;;;4982741;28;20122;-81
2022/12/20 10:41:24;;;;;;;4.20;2.30;;;10.70;99.90;;;;;;4949490;28;20038;-81
2022/12/20 10:44:01;;;;;;;4.57;2.78;;;10.70;99.90;;;;;;4951980;28;20921;-81
2022/12/20 10:46:35;;;;;;;4.65;2.10;;;10.70;99.90;;;;;;4966125;28;20031;-82
2022/12/20 10:49:20;;;;;;;3.25;1.98;;;10.80;99.90;;;;;;4940500;28;20077;-81
2022/12/20 10:51:51;;;;;;;2.30;1.98;;;10.80;99.90;;;;;;4962859;28;20054;-81
2022/12/20 10:54:32;;;;;;;7.75;2.30;;;10.90;99.90;;;;;;4954852;28;20494;-81
2022/12/20 10:57:00;;;;;;;4.22;2.30;;;10.90;99.90;;;;;;4981610;28;20525;-81
2022/12/20 10:59:30;;;;;;;5.10;2.72;;;10.90;99.90;;;;;;4967811;28;20081;-81
2022/12/20 11:01:56;;;;;;;5.53;3.72;;;11.00;99.90;;;;;;4983806;28;20046;-81
2022/12/20 11:04:29;;;;;;;4.22;2.30;;;11.00;99.90;;;;;;4968210;28;20042;-81
2022/12/20 11:06:55;;;;;;;6.20;2.10;;;11.00;99.90;;;;;;4942329;28;20042;-81
2022/12/20 11:09:26;;;;;;;3.15;1.90;;;11.00;99.90;;;;;;4966891;28;20522;-81
2022/12/20 11:12:16;;;;;;;4.85;2.85;;;11.00;99.90;;;;;;4955022;28;20039;-81
2022/12/20 11:14:45;;;;;;;3.40;2.60;;;11.10;99.90;;;;;;4965248;28;20034;-81
2022/12/20 11:17:42;;;;;;;3.83;2.20;;;11.10;99.90;;;;;;4965241;28;20566;-81
2022/12/20 11:20:25;;;;;;;2.88;2.10;;;11.20;99.90;;;;;;4946717;28;20652;-81
2022/12/20 11:22:59;;;;;;;4.53;2.08;;;11.20;99.90;;;;;;4959678;28;20030;-81
2022/12/20 11:26:00;;;;;;;2.03;1.83;;;11.30;99.90;;;;;;4983983;28;20077;-82
2022/12/20 11:28:59;;;;;;;4.90;2.72;;;11.30;99.90;;;;;;4970065;28;20462;-81
2022/12/20 11:31:55;;;;;;;7.15;2.67;;;11.30;99.90;;;;;;4953117;28;20034;-81
2022/12/20 11:34:34;;;;;;;3.78;2.08;;;11.40;99.90;;;;;;4955201;28;20038;-81
2022/12/20 11:37:20;;;;;;;3.13;1.90;;;11.40;99.90;;;;;;4968782;28;20027;-84
2022/12/20 11:40:07;;;;;;;6.38;2.35;;;11.50;99.90;;;;;;4950180;28;20113;-80
2022/12/20 11:42:44;;;;;;;5.22;2.40;;;11.50;99.90;;;;;;4970292;28;20041;-80
2022/12/20 11:45:29;;;;;;;4.00;2.05;;;11.50;99.90;;;;;;4988168;28;20371;-81
2022/12/20 11:48:16;;;;;;;5.85;2.20;;;11.50;99.90;;;;;;4971976;28;20041;-81
2022/12/20 11:50:44;;;;;;;2.55;1.90;;;11.50;99.90;;;;;;4979915;28;20561;-81
2022/12/20 11:53:38;;;;;;;3.35;1.70;;;11.60;99.90;;;;;;4970114;28;20023;-81
2022/12/20 11:56:37;;;;;;;2.83;1.58;;;11.50;99.90;;;;;;4967867;28;20045;-81
2022/12/20 11:59:29;;;;;;;4.15;1.65;;;11.50;99.90;;;;;;4965072;28;20093;-81
2022/12/20 12:02:19;;;;;;;5.18;1.92;;;11.40;99.90;;;;;;4953516;28;20034;-81
2022/12/20 12:05:27;;;;;;;3.03;1.30;;;11.50;99.90;;;;;;4967592;28;20674;-81
2022/12/20 12:07:55;;;;;;;3.05;1.60;;;11.50;99.90;;;;;;4959459;28;20692;-81
2022/12/20 12:10:22;;;;;;;1.48;1.20;;;11.50;99.90;;;;;;4951423;28;20170;-81
2022/12/20 12:12:56;;;;;;;5.22;1.88;;;11.50;99.90;;;;;;4985578;28;20035;-81
2022/12/20 12:15:36;;;;;;;5.57;1.77;;;11.60;99.90;;;;;;4970719;28;20030;-81
2022/12/20 12:18:15;;;;;;;3.15;1.50;;;11.60;99.90;;;;;;4954286;28;20043;-81
2022/12/20 12:20:49;;;;;;;2.85;1.60;;;11.60;99.90;;;;;;4965680;28;20498;-84
2022/12/20 12:23:25;;;;;;;3.58;1.40;;;11.60;99.90;;;;;;4949077;28;20050;-81
2022/12/20 12:25:51;;;;;;;2.92;1.50;;;11.60;99.90;;;;;;4984597;28;20093;-81
2022/12/20 12:28:17;;;;;;;3.20;1.13;;;11.70;99.90;;;;;;4960280;28;20038;-80
2022/12/20 12:30:51;;;;;;;1.73;1.63;;;11.60;99.90;;;;;;4935649;28;20057;-80
2022/12/20 12:33:20;;;;;;;2.95;0.98;;;11.70;99.90;;;;;;4969879;28;20038;-81
2022/12/20 12:35:57;;;;;;;4.28;1.42;;;11.70;99.90;;;;;;4968122;28;20045;-80
2022/12/20 12:38:41;;;;;;;3.42;1.40;;;11.70;99.90;;;;;;4985727;28;20030;-81
2022/12/20 12:41:10;;;;;;;1.67;1.10;;;11.80;99.90;;;;;;4984034;28;20138;-80
2022/12/20 12:44:01;;;;;;;1.67;1.02;;;11.80;99.90;;;;;;4986883;28;20399;-81
2022/12/20 12:46:31;;;;;;;2.97;1.38;;;11.80;99.90;;;;;;4987471;28;20379;-81
2022/12/20 12:48:58;;;;;;;4.70;1.33;;;11.80;99.90;;;;;;4952539;28;20041;-80
2022/12/20 12:51:35;;;;;;;1.25;1.15;;;11.80;99.90;;;;;;4972001;28;20077;-80
2022/12/20 12:54:22;;;;;;;5.38;1.95;;;11.80;99.90;;;;;;4983395;28;20125;-80
2022/12/20 12:56:48;;;;;;;2.85;1.40;;;11.80;99.90;;;;;;4984355;28;20486;-80
2022/12/20 12:59:31;;;;;;;3.53;0.90;;;11.80;99.90;;;;;;4953049;28;20077;-80
2022/12/20 13:02:12;;;;;;;3.58;1.83;;;11.90;99.90;;;;;;4964162;28;20050;-81
2022/12/20 13:04:58;;;;;;;7.60;2.00;;;11.90;99.90;;;;;;4985972;28;20117;-80
2022/12/20 13:07:38;;;;;;;2.20;1.30;;;11.90;99.90;;;;;;4995030;28;20037;-80
2022/12/20 13:10:28;;;;;;;1.70;1.15;;;11.80;99.90;;;;;;4987328;28;20056;-81
2022/12/20 13:12:57;;;;;;;4.28;1.63;;;11.80;99.90;;;;;;4986056;28;20031;-80